createdAt,value
2023-02-19T00:00:17.004Z,8.90
2023-02-19T00:03:05.736Z,7.50
2023-02-19T00:05:35.966Z,6.90
2023-02-19T00:08:05.069Z,8.90
2023-02-19T00:10:33.857Z,8.10
2023-02-19T00:13:04.811Z,11.90
2023-02-19T00:15:34.071Z,5.80
2023-02-19T00:18:02.973Z,6.60
2023-02-19T00:20:31.827Z,5.80
2023-02-19T00:23:00.636Z,8.40
2023-02-19T00:25:29.471Z,6.10
2023-02-19T00:27:58.188Z,7.70
2023-02-19T00:30:27.078Z,5.90
2023-02-19T00:32:55.652Z,7.80
2023-02-19T00:35:24.596Z,6.10
2023-02-19T00:37:59.382Z,7.90
2023-02-19T00:40:28.037Z,5.30
2023-02-19T00:42:56.907Z,6.40
2023-02-19T00:45:25.757Z,7.20
2023-02-19T00:47:54.525Z,5.40
2023-02-19T00:50:23.473Z,7.10
2023-02-19T00:52:52.170Z,5.30
2023-02-19T00:55:20.971Z,7.40
2023-02-19T00:57:49.663Z,6.40
2023-02-19T01:00:18.557Z,7.20
2023-02-19T01:02:47.515Z,6.90
2023-02-19T01:05:16.313Z,9.90
2023-02-19T01:07:45.145Z,6.10
2023-02-19T01:10:14.033Z,6.80
2023-02-19T01:12:43.029Z,6.70
2023-02-19T01:15:11.905Z,8.40
2023-02-19T01:17:40.683Z,9.60
2023-02-19T01:20:10.254Z,9.90
2023-02-19T01:22:38.927Z,7.90
2023-02-19T01:25:08.381Z,9.30
2023-02-19T01:27:36.998Z,7.80
2023-02-19T01:30:06.271Z,8.70
2023-02-19T01:32:34.963Z,9.50
2023-02-19T01:35:03.747Z,7.60
2023-02-19T01:37:32.402Z,10.50
2023-02-19T01:40:01.089Z,8.90
2023-02-19T01:42:29.847Z,9.40
2023-02-19T01:45:30.392Z,8.10
2023-02-19T01:48:34.291Z,7.20
2023-02-19T01:51:11.376Z,7.40
2023-02-19T01:53:46.539Z,7.60
2023-02-19T01:56:19.129Z,7.50
2023-02-19T01:58:48.390Z,6.50
2023-02-19T02:01:17.151Z,8.30
2023-02-19T02:03:49.168Z,7.00
2023-02-19T02:06:34.569Z,8.00
2023-02-19T02:09:21.804Z,7.60
2023-02-19T02:11:53.383Z,6.90
2023-02-19T02:14:29.536Z,7.30
2023-02-19T02:17:20.354Z,6.20
2023-02-19T02:20:15.439Z,8.00
2023-02-19T02:22:49.424Z,7.90
2023-02-19T02:28:21.953Z,6.50
2023-02-19T02:31:02.980Z,5.60
2023-02-19T02:33:47.533Z,8.60
2023-02-19T02:36:25.004Z,9.80
2023-02-19T02:38:55.649Z,8.40
2023-02-19T02:41:27.007Z,8.30
2023-02-19T02:43:56.156Z,7.20
2023-02-19T02:46:35.797Z,6.90
2023-02-19T02:49:10.614Z,8.60
2023-02-19T02:51:47.097Z,7.90
2023-02-19T02:54:47.035Z,7.80
2023-02-19T02:57:17.397Z,6.70
2023-02-19T02:59:49.610Z,7.10
2023-02-19T03:02:26.417Z,6.90
2023-02-19T03:05:28.252Z,6.70
2023-02-19T03:08:38.350Z,7.40
2023-02-19T03:11:29.102Z,6.80
2023-02-19T03:14:29.518Z,6.90
2023-02-19T03:17:35.119Z,5.90
2023-02-19T03:20:09.843Z,5.00
2023-02-19T03:22:40.927Z,4.30
2023-02-19T03:25:37.532Z,6.00
2023-02-19T03:28:11.169Z,9.10
2023-02-19T03:30:47.964Z,5.90
2023-02-19T03:33:22.497Z,4.50
2023-02-19T03:36:05.568Z,3.70
2023-02-19T03:38:44.812Z,5.40
2023-02-19T03:41:26.292Z,4.00
2023-02-19T03:44:30.809Z,4.70
2023-02-19T03:47:13.920Z,5.70
2023-02-19T03:50:28.530Z,4.60
2023-02-19T03:53:18.805Z,4.50
2023-02-19T03:56:38.422Z,3.90
2023-02-19T03:59:43.738Z,3.60
2023-02-19T04:02:20.440Z,4.00
2023-02-19T04:04:56.677Z,4.50
2023-02-19T04:07:27.638Z,4.30
2023-02-19T04:09:56.848Z,3.80
2023-02-19T04:12:25.827Z,4.00
2023-02-19T04:15:06.862Z,3.80
2023-02-19T04:17:59.814Z,4.30
2023-02-19T04:20:32.648Z,4.60
2023-02-19T04:23:01.299Z,4.40
2023-02-19T04:25:31.398Z,5.10
2023-02-19T04:28:00.488Z,4.10
2023-02-19T04:30:29.436Z,4.00
2023-02-19T04:32:58.177Z,5.10
2023-02-19T04:35:26.854Z,3.80
2023-02-19T04:37:55.373Z,4.40
2023-02-19T04:40:23.992Z,7.20
2023-02-19T04:42:53.439Z,5.60
2023-02-19T04:45:22.009Z,5.50
2023-02-19T04:47:50.590Z,4.00
2023-02-19T04:50:19.288Z,8.10
2023-02-19T04:52:47.888Z,4.60
2023-02-19T04:55:16.757Z,4.40
2023-02-19T04:57:45.424Z,5.10
2023-02-19T05:00:14.679Z,6.80
2023-02-19T05:02:43.219Z,5.30
2023-02-19T05:05:11.858Z,6.30
2023-02-19T05:07:40.379Z,5.70
2023-02-19T05:10:09.175Z,7.50
2023-02-19T05:12:37.872Z,5.30
2023-02-19T05:15:06.732Z,4.80
2023-02-19T05:17:35.751Z,5.20
2023-02-19T05:20:04.743Z,4.50
2023-02-19T05:22:33.324Z,4.50
2023-02-19T05:25:02.098Z,5.20
2023-02-19T05:27:31.770Z,6.70
2023-02-19T05:30:00.571Z,6.80
2023-02-19T05:32:29.276Z,5.00
2023-02-19T05:34:57.870Z,6.50
2023-02-19T05:37:26.417Z,5.70
2023-02-19T05:39:54.960Z,6.40
2023-02-19T05:42:23.603Z,6.80
2023-02-19T05:44:52.438Z,6.40
2023-02-19T05:47:21.023Z,4.60
2023-02-19T05:49:49.692Z,6.10
2023-02-19T05:52:18.349Z,6.50
2023-02-19T05:54:46.983Z,5.50
2023-02-19T05:57:15.592Z,5.60
2023-02-19T05:59:44.236Z,6.70
2023-02-19T06:02:12.932Z,7.20
2023-02-19T06:04:41.686Z,4.70
2023-02-19T06:07:10.316Z,5.20
2023-02-19T06:09:38.880Z,6.80
2023-02-19T06:12:08.293Z,4.80
2023-02-19T06:14:37.020Z,6.10
2023-02-19T06:17:05.565Z,6.10
2023-02-19T06:19:34.168Z,5.30
2023-02-19T06:22:02.933Z,8.10
2023-02-19T06:24:31.779Z,6.40
2023-02-19T06:27:00.508Z,5.00
2023-02-19T06:29:29.241Z,6.10
2023-02-19T06:31:58.175Z,6.10
2023-02-19T06:34:27.178Z,7.90
2023-02-19T06:36:57.816Z,6.00
2023-02-19T06:39:27.720Z,5.60
2023-02-19T06:41:57.849Z,5.60
2023-02-19T06:44:26.483Z,4.90
2023-02-19T06:46:56.171Z,6.10
2023-02-19T06:49:24.744Z,4.60
2023-02-19T06:51:53.568Z,8.90
2023-02-19T06:54:22.194Z,5.00
2023-02-19T06:56:50.749Z,4.30
2023-02-19T06:59:19.388Z,4.40
2023-02-19T07:01:48.089Z,6.30
2023-02-19T07:04:16.961Z,4.50
2023-02-19T07:06:45.754Z,5.90
2023-02-19T07:09:14.459Z,6.70
2023-02-19T07:11:43.090Z,5.10
2023-02-19T07:14:16.843Z,5.30
2023-02-19T07:16:47.549Z,4.30
2023-02-19T07:19:16.221Z,4.00
2023-02-19T07:21:44.789Z,3.90
2023-02-19T07:24:13.514Z,4.20
2023-02-19T07:26:42.672Z,4.00
2023-02-19T07:29:11.241Z,1.90
2023-02-19T07:31:40.059Z,3.30
2023-02-19T07:34:08.868Z,4.10
2023-02-19T07:36:37.873Z,3.60
2023-02-19T07:39:09.117Z,3.20
2023-02-19T07:41:38.899Z,2.20
2023-02-19T07:44:07.890Z,2.90
2023-02-19T07:46:36.574Z,3.00
2023-02-19T07:49:07.316Z,2.80
2023-02-19T07:51:36.033Z,4.50
2023-02-19T07:54:04.688Z,4.30
2023-02-19T07:56:33.351Z,5.30
2023-02-19T07:59:01.989Z,3.70
2023-02-19T08:02:29.663Z,3.10
2023-02-19T08:04:58.420Z,4.10
2023-02-19T08:07:35.491Z,4.10
2023-02-19T08:10:24.301Z,6.20
2023-02-19T08:13:19.105Z,5.10
2023-02-19T08:18:17.552Z,3.10
2023-02-19T08:20:46.439Z,3.70
2023-02-19T08:23:15.393Z,3.40
2023-02-19T08:25:44.042Z,4.60
2023-02-19T08:28:13.245Z,4.30
2023-02-19T08:30:45.481Z,4.00
2023-02-19T08:33:17.758Z,3.20
2023-02-19T08:35:47.123Z,3.60
2023-02-19T08:38:18.830Z,3.70
2023-02-19T08:40:47.393Z,3.70
2023-02-19T08:43:17.815Z,3.50
2023-02-19T08:45:52.589Z,2.90
2023-02-19T08:48:21.432Z,3.10
2023-02-19T08:51:04.039Z,4.10
2023-02-19T08:53:33.201Z,3.10
2023-02-19T08:56:13.736Z,4.00
2023-02-19T08:58:43.045Z,3.30
2023-02-19T09:01:18.787Z,3.70
2023-02-19T09:03:47.689Z,4.10
2023-02-19T09:06:20.158Z,4.20
2023-02-19T09:08:49.054Z,4.20
2023-02-19T09:11:17.817Z,4.90
2023-02-19T09:13:46.603Z,2.80
2023-02-19T09:16:15.241Z,3.00
2023-02-19T09:18:46.043Z,2.20
2023-02-19T09:21:14.709Z,3.70
2023-02-19T09:23:43.359Z,4.50
2023-02-19T09:26:14.093Z,4.10
2023-02-19T09:28:43.309Z,3.60
2023-02-19T09:31:16.464Z,3.60
2023-02-19T09:33:47.677Z,3.50
2023-02-19T09:36:17.288Z,2.00
2023-02-19T09:38:46.091Z,3.30
2023-02-19T09:41:26.531Z,3.60
2023-02-19T09:43:55.935Z,4.40
2023-02-19T09:46:46.451Z,3.50
2023-02-19T09:49:25.717Z,7.30
2023-02-19T09:52:04.491Z,5.20
2023-02-19T09:54:34.345Z,3.50
2023-02-19T09:57:04.706Z,3.70
2023-02-19T10:00:04.777Z,3.70
2023-02-19T10:02:33.658Z,4.80
2023-02-19T10:05:04.040Z,3.00
2023-02-19T10:07:40.472Z,5.00
2023-02-19T10:10:14.540Z,2.30
2023-02-19T10:15:38.387Z,5.60
2023-02-19T10:18:09.510Z,3.50
2023-02-19T10:20:40.568Z,5.10
2023-02-19T10:23:14.363Z,4.30
2023-02-19T10:25:58.069Z,4.00
2023-02-19T10:28:34.701Z,4.40
2023-02-19T10:31:12.079Z,4.20
2023-02-19T10:33:51.940Z,6.50
2023-02-19T10:36:39.160Z,6.00
2023-02-19T10:39:22.930Z,4.40
2023-02-19T10:41:54.718Z,5.70
2023-02-19T10:44:28.222Z,4.20
2023-02-19T10:47:00.142Z,3.50
2023-02-19T10:49:39.927Z,5.00
2023-02-19T10:52:27.051Z,4.10
2023-02-19T10:55:17.815Z,5.10
2023-02-19T10:57:47.243Z,4.40
2023-02-19T11:00:15.661Z,5.30
2023-02-19T11:02:45.301Z,4.90
2023-02-19T11:05:16.825Z,3.60
2023-02-19T11:07:56.229Z,4.90
2023-02-19T11:10:33.757Z,5.00
2023-02-19T11:13:06.563Z,3.60
2023-02-19T11:15:37.499Z,5.00
2023-02-19T11:18:33.161Z,4.60
2023-02-19T11:21:05.358Z,5.00
2023-02-19T11:23:47.343Z,4.70
2023-02-19T11:26:31.255Z,4.10
2023-02-19T11:29:11.382Z,3.40
2023-02-19T11:31:40.026Z,4.90
2023-02-19T11:34:14.646Z,5.40
2023-02-19T11:36:43.061Z,5.10
2023-02-19T11:39:17.502Z,4.90
2023-02-19T11:42:10.247Z,4.50
2023-02-19T11:44:56.851Z,5.00
2023-02-19T11:48:05.689Z,5.80
2023-02-19T11:51:10.849Z,5.60
2023-02-19T11:53:49.839Z,6.20
2023-02-19T11:56:34.142Z,6.00
2023-02-19T11:59:20.246Z,5.50
2023-02-19T12:01:54.468Z,6.50
2023-02-19T12:04:56.970Z,6.50
2023-02-19T12:08:09.673Z,5.30
2023-02-19T12:11:25.265Z,5.50
2023-02-19T12:16:58.418Z,5.60
2023-02-19T12:20:11.544Z,5.50
2023-02-19T12:22:58.984Z,5.90
2023-02-19T12:25:51.456Z,6.60
2023-02-19T12:28:40.328Z,7.20
2023-02-19T12:31:49.404Z,5.50
2023-02-19T12:34:24.301Z,5.70
2023-02-19T12:37:24.918Z,8.00
2023-02-19T12:40:25.046Z,7.90
2023-02-19T12:43:24.628Z,7.60
2023-02-19T12:46:04.545Z,8.30
2023-02-19T12:48:53.718Z,8.00
2023-02-19T12:51:57.682Z,7.70
2023-02-19T12:54:44.597Z,7.10
2023-02-19T12:57:23.148Z,8.20
2023-02-19T13:00:10.552Z,7.70
2023-02-19T13:02:54.167Z,7.90
2023-02-19T13:05:48.347Z,9.00
2023-02-19T13:08:48.830Z,9.60
2023-02-19T13:11:31.475Z,8.20
2023-02-19T13:14:44.259Z,9.60
2023-02-19T13:17:51.532Z,9.10
2023-02-19T13:20:39.357Z,8.00
2023-02-19T13:23:55.398Z,12.20
2023-02-19T13:26:48.802Z,9.80
2023-02-19T13:29:53.374Z,11.10
2023-02-19T13:32:32.197Z,10.20
2023-02-19T13:35:39.279Z,9.50
2023-02-19T13:38:14.903Z,8.70
2023-02-19T13:40:55.163Z,8.10
2023-02-19T13:43:38.922Z,6.70
2023-02-19T13:46:11.012Z,8.50
2023-02-19T13:48:41.996Z,8.60
2023-02-19T13:51:13.676Z,9.10
2023-02-19T13:53:42.664Z,8.70
2023-02-19T13:56:35.651Z,8.60
2023-02-19T13:59:21.925Z,9.50
2023-02-19T14:01:51.605Z,7.50
2023-02-19T14:04:50.377Z,7.60
2023-02-19T14:07:18.831Z,7.20
2023-02-19T14:09:48.168Z,7.80
2023-02-19T14:12:16.668Z,10.00
2023-02-19T14:14:53.395Z,8.50
2023-02-19T14:17:42.202Z,8.80
2023-02-19T14:20:11.732Z,11.30
2023-02-19T14:22:51.645Z,7.80
2023-02-19T14:25:30.618Z,6.80
2023-02-19T14:28:15.072Z,9.10
2023-02-19T14:33:36.225Z,11.20
2023-02-19T14:36:37.894Z,10.40
2023-02-19T14:39:12.810Z,9.80
2023-02-19T14:41:46.403Z,7.50
2023-02-19T14:44:25.095Z,10.50
2023-02-19T14:47:23.280Z,9.40
2023-02-19T14:49:59.265Z,10.70
2023-02-19T14:52:44.524Z,8.00
2023-02-19T14:55:32.987Z,10.70
2023-02-19T14:58:07.921Z,12.70
2023-02-19T15:00:42.140Z,13.80
2023-02-19T15:03:35.404Z,10.40
2023-02-19T15:06:16.578Z,10.30
2023-02-19T15:08:52.745Z,10.00
2023-02-19T15:11:26.352Z,8.90
2023-02-19T15:14:02.388Z,13.20
2023-02-19T15:16:35.904Z,12.10
2023-02-19T15:19:09.815Z,10.00
2023-02-19T15:21:46.652Z,9.20
2023-02-19T15:24:17.555Z,9.20
2023-02-19T15:26:54.406Z,10.50
2023-02-19T15:29:27.085Z,11.40
2023-02-19T15:32:01.223Z,11.00
2023-02-19T15:34:32.772Z,11.80
2023-02-19T15:37:08.407Z,10.00
2023-02-19T15:39:41.344Z,11.70
2023-02-19T15:42:16.935Z,12.20
2023-02-19T15:44:49.875Z,11.30
2023-02-19T15:47:34.885Z,12.00
2023-02-19T15:50:19.052Z,11.10
2023-02-19T15:53:23.834Z,13.40
2023-02-19T15:56:18.162Z,14.20
2023-02-19T15:58:53.234Z,14.70
2023-02-19T16:01:29.704Z,13.00
2023-02-19T16:03:59.042Z,12.10
2023-02-19T16:06:29.059Z,12.90
2023-02-19T16:09:06.046Z,12.40
2023-02-19T16:11:55.581Z,16.20
2023-02-19T16:14:25.640Z,13.70
2023-02-19T16:17:16.712Z,14.00
2023-02-19T16:20:02.411Z,14.70
2023-02-19T16:22:40.733Z,12.00
2023-02-19T16:25:30.762Z,13.20
2023-02-19T16:27:59.658Z,11.60
2023-02-19T16:30:34.165Z,14.60
2023-02-19T16:33:22.679Z,15.90
2023-02-19T16:35:52.581Z,17.20
2023-02-19T16:38:21.627Z,17.70
2023-02-19T16:40:54.305Z,17.70
2023-02-19T16:43:31.592Z,20.80
2023-02-19T16:46:01.807Z,18.60
2023-02-19T16:48:30.327Z,17.10
2023-02-19T16:50:59.692Z,18.80
2023-02-19T16:53:29.472Z,19.50
2023-02-19T16:55:58.011Z,18.80
2023-02-19T16:58:27.151Z,14.50
2023-02-19T17:00:56.286Z,17.40
2023-02-19T17:03:25.955Z,20.50
2023-02-19T17:05:54.595Z,17.00
2023-02-19T17:08:34.238Z,19.10
2023-02-19T17:11:06.767Z,18.50
2023-02-19T17:13:35.308Z,21.00
2023-02-19T17:16:04.402Z,17.20
2023-02-19T17:18:33.108Z,17.50
2023-02-19T17:21:23.073Z,17.60
2023-02-19T17:23:52.727Z,16.70
2023-02-19T17:26:28.238Z,16.00
2023-02-19T17:29:02.856Z,16.20
2023-02-19T17:31:31.900Z,15.40
2023-02-19T17:34:00.596Z,14.50
2023-02-19T17:36:32.605Z,19.40
2023-02-19T17:39:04.134Z,13.60
2023-02-19T17:41:33.192Z,13.50
2023-02-19T17:44:01.699Z,16.30
2023-02-19T17:46:30.189Z,13.00
2023-02-19T17:48:58.768Z,12.90
2023-02-19T17:51:27.247Z,11.30
2023-02-19T17:53:55.768Z,12.50
2023-02-19T17:56:26.722Z,11.60
2023-02-19T17:58:56.950Z,10.60
2023-02-19T18:01:25.478Z,10.70
2023-02-19T18:03:54.009Z,11.10
2023-02-19T18:06:22.593Z,21.50
2023-02-19T18:08:53.297Z,27.70
2023-02-19T18:11:23.066Z,23.50
2023-02-19T18:13:52.491Z,17.90
2023-02-19T18:16:22.402Z,16.90
2023-02-19T18:18:51.012Z,14.40
2023-02-19T18:21:19.646Z,14.50
2023-02-19T18:23:48.240Z,15.50
2023-02-19T18:26:21.613Z,16.20
2023-02-19T18:28:50.136Z,18.20
2023-02-19T18:31:18.913Z,14.00
2023-02-19T18:33:47.634Z,13.70
2023-02-19T18:36:16.454Z,12.70
2023-02-19T18:38:45.798Z,12.00
2023-02-19T18:41:14.842Z,10.10
2023-02-19T18:43:43.566Z,11.60
2023-02-19T18:46:12.377Z,9.70
2023-02-19T18:48:41.279Z,11.60
2023-02-19T18:51:11.658Z,9.50
2023-02-19T18:53:43.210Z,8.80
2023-02-19T18:56:11.829Z,7.40
2023-02-19T18:58:40.539Z,9.20
2023-02-19T19:01:09.549Z,5.90
2023-02-19T19:03:38.425Z,4.90
2023-02-19T19:06:07.464Z,5.00
2023-02-19T19:08:36.100Z,5.30
2023-02-19T19:11:04.818Z,6.60
2023-02-19T19:13:33.745Z,7.00
2023-02-19T19:16:02.533Z,9.00
2023-02-19T19:18:32.380Z,7.60
2023-02-19T19:21:03.710Z,8.00
2023-02-19T19:23:32.760Z,6.50
2023-02-19T19:26:07.276Z,7.60
2023-02-19T19:28:36.743Z,10.50
2023-02-19T19:31:05.944Z,8.60
2023-02-19T19:33:34.732Z,8.50
2023-02-19T19:36:06.946Z,7.40
2023-02-19T19:38:35.905Z,6.40
2023-02-19T19:41:06.415Z,6.30
2023-02-19T19:43:35.239Z,7.90
2023-02-19T19:46:04.526Z,5.20
2023-02-19T19:48:33.429Z,6.20
2023-02-19T19:51:02.303Z,7.00
2023-02-19T19:53:32.218Z,4.70
2023-02-19T19:56:01.907Z,4.20
2023-02-19T19:58:30.529Z,2.60
2023-02-19T20:01:01.854Z,2.10
2023-02-19T20:03:32.788Z,2.80
2023-02-19T20:06:02.670Z,1.80
2023-02-19T20:08:31.631Z,2.30
2023-02-19T20:11:00.234Z,1.90
2023-02-19T20:13:30.684Z,2.10
2023-02-19T20:15:59.432Z,2.30
2023-02-19T20:18:28.455Z,1.80
2023-02-19T20:20:57.031Z,1.70
2023-02-19T20:23:27.370Z,1.90
2023-02-19T20:25:57.764Z,2.80
2023-02-19T20:28:26.386Z,2.10
2023-02-19T20:30:55.300Z,1.10
2023-02-19T20:33:23.955Z,1.80
2023-02-19T20:35:52.480Z,2.80
2023-02-19T20:38:21.138Z,2.50
2023-02-19T20:40:49.728Z,2.70
2023-02-19T20:43:18.256Z,2.70
2023-02-19T20:45:47.935Z,2.70
2023-02-19T20:48:17.871Z,2.60
2023-02-19T20:50:46.397Z,2.60
2023-02-19T20:53:15.170Z,2.20
2023-02-19T20:55:43.732Z,1.80
2023-02-19T20:58:12.726Z,1.90
2023-02-19T21:00:41.374Z,3.10
2023-02-19T21:03:11.839Z,3.40
2023-02-19T21:05:41.601Z,2.80
2023-02-19T21:08:11.833Z,3.50
2023-02-19T21:10:40.722Z,3.20
2023-02-19T21:13:09.217Z,3.00
2023-02-19T21:15:37.760Z,3.20
2023-02-19T21:18:06.447Z,2.60
2023-02-19T21:20:35.148Z,3.60
2023-02-19T21:23:04.155Z,4.30
2023-02-19T21:25:33.333Z,2.60
2023-02-19T21:28:01.845Z,3.00
2023-02-19T21:30:30.390Z,5.00
2023-02-19T21:32:58.926Z,3.80
2023-02-19T21:35:28.102Z,4.10
2023-02-19T21:37:56.661Z,2.10
2023-02-19T21:40:25.959Z,2.80
2023-02-19T21:42:54.715Z,4.00
2023-02-19T21:45:23.536Z,2.50
2023-02-19T21:47:52.353Z,4.70
2023-02-19T21:50:22.724Z,3.50
2023-02-19T21:52:51.273Z,3.50
2023-02-19T21:55:20.670Z,4.10
2023-02-19T21:57:49.271Z,3.40
2023-02-19T22:00:18.380Z,4.80
2023-02-19T22:02:47.223Z,4.50
2023-02-19T22:05:16.520Z,4.30
2023-02-19T22:07:45.062Z,3.60
2023-02-19T22:10:15.447Z,4.40
2023-02-19T22:12:44.016Z,4.60
2023-02-19T22:15:13.034Z,3.80
2023-02-19T22:17:41.608Z,3.70
2023-02-19T22:20:10.419Z,6.30
2023-02-19T22:22:40.575Z,3.60
2023-02-19T22:25:09.238Z,6.60
2023-02-19T22:27:37.800Z,4.10
2023-02-19T22:30:07.363Z,4.10
2023-02-19T22:32:36.150Z,4.10
2023-02-19T22:35:04.842Z,4.40
2023-02-19T22:37:33.385Z,7.00
2023-02-19T22:40:02.079Z,4.70
2023-02-19T22:42:30.531Z,4.80
2023-02-19T22:44:59.007Z,4.80
2023-02-19T22:47:27.583Z,5.50
2023-02-19T22:49:56.032Z,6.80
2023-02-19T22:52:28.175Z,5.30
2023-02-19T22:54:56.884Z,8.60
2023-02-19T22:57:25.708Z,5.50
2023-02-19T22:59:54.230Z,6.20
2023-02-19T23:02:22.751Z,4.90
2023-02-19T23:04:51.370Z,6.50
2023-02-19T23:07:20.053Z,4.90
2023-02-19T23:09:49.119Z,5.10
2023-02-19T23:12:17.568Z,4.80
2023-02-19T23:14:47.100Z,6.00
2023-02-19T23:17:15.544Z,4.80
2023-02-19T23:19:44.134Z,4.50
2023-02-19T23:22:12.781Z,6.70
2023-02-19T23:24:41.226Z,6.30
2023-02-19T23:27:09.678Z,8.70
2023-02-19T23:29:38.198Z,5.50
2023-02-19T23:32:06.757Z,7.80
2023-02-19T23:34:35.423Z,5.40
2023-02-19T23:37:03.941Z,6.50
2023-02-19T23:39:32.855Z,6.50
2023-02-19T23:42:01.594Z,6.10
2023-02-19T23:44:30.176Z,6.80
2023-02-19T23:46:58.828Z,6.80
2023-02-19T23:49:27.411Z,5.50
2023-02-19T23:51:56.211Z,6.80
2023-02-19T23:54:24.908Z,6.40
2023-02-19T23:56:53.546Z,5.90
2023-02-19T23:59:22.121Z,8.00
